Terminal Aerodrome Forecast
Issued by NWS Albuquerque, NM

Home | Current Version | Previous Version | Text Only | Print | Product List | Glossary On
Versions: 1 2 3 4 5 6 7 8 9 10 11 12 13 14
000
FTUS45 KABQ 251100
TAFABQ
TAF
KABQ 251140Z 2512/2612 14007KT P6SM SCT120 SCT180
     FM251730 20010KT P6SM SCT120 SCT200
     FM252000 22015G23KT P6SM SCT100 BKN140
     FM260200 25009KT P6SM BKN080
     FM260530 27008KT P6SM VCSH SCT050 BKN070=

USA.gov is the U.S. government's official web portal to all federal, state and local government web resources and services.